createdAt,value
2022-09-20T00:01:28.527Z,9.87
2022-09-20T00:04:08.204Z,9.88
2022-09-20T00:06:46.530Z,9.89
2022-09-20T00:09:22.733Z,9.89
2022-09-20T00:11:59.448Z,9.88
2022-09-20T00:14:35.862Z,9.89
2022-09-20T00:17:12.212Z,9.89
2022-09-20T00:19:48.619Z,9.90
2022-09-20T00:22:24.902Z,9.90
2022-09-20T00:25:01.201Z,9.91
2022-09-20T00:27:37.436Z,9.91
2022-09-20T00:30:17.015Z,9.92
2022-09-20T00:32:53.241Z,9.92
2022-09-20T00:35:29.726Z,9.92
2022-09-20T00:38:06.202Z,9.93
2022-09-20T00:40:43.274Z,9.93
2022-09-20T00:43:39.315Z,9.94
2022-09-20T00:46:29.663Z,9.95
2022-09-20T00:49:16.876Z,9.95
2022-09-20T00:52:01.855Z,9.95
2022-09-20T00:54:39.231Z,9.94
2022-09-20T00:57:15.689Z,9.95
2022-09-20T00:59:55.235Z,9.95
2022-09-20T01:02:36.109Z,9.97
2022-09-20T01:05:16.162Z,9.99
2022-09-20T01:07:55.009Z,10.00
2022-09-20T01:10:32.979Z,10.02
2022-09-20T01:13:09.692Z,10.04
2022-09-20T01:15:48.930Z,10.05
2022-09-20T01:18:27.439Z,10.07
2022-09-20T01:21:07.721Z,10.08
2022-09-20T01:24:01.567Z,10.09
2022-09-20T01:27:06.829Z,10.09
2022-09-20T01:30:08.162Z,10.11
2022-09-20T01:33:10.633Z,10.12
2022-09-20T01:35:51.459Z,10.13
2022-09-20T01:38:44.283Z,10.13
2022-09-20T01:41:29.877Z,10.14
2022-09-20T01:44:19.437Z,10.14
2022-09-20T01:47:08.458Z,10.13
2022-09-20T01:49:58.123Z,10.13
2022-09-20T01:53:38.581Z,10.13
2022-09-20T01:57:00.757Z,10.13
2022-09-20T02:00:07.003Z,10.13
2022-09-20T02:03:48.949Z,10.13
2022-09-20T02:07:06.429Z,10.13
2022-09-20T02:10:22.881Z,10.15
2022-09-20T02:13:10.656Z,10.15
2022-09-20T02:16:37.877Z,10.16
2022-09-20T02:19:48.275Z,10.17
2022-09-20T02:22:46.206Z,10.18
2022-09-20T02:26:02.432Z,10.19
2022-09-20T02:29:02.763Z,10.20
2022-09-20T02:32:14.890Z,10.20
2022-09-20T02:35:26.446Z,10.20
2022-09-20T02:38:23.845Z,10.21
2022-09-20T02:41:39.557Z,10.20
2022-09-20T02:44:30.862Z,10.20
2022-09-20T02:47:23.725Z,10.21
2022-09-20T02:50:21.309Z,10.22
2022-09-20T02:53:24.421Z,10.22
2022-09-20T02:56:19.367Z,10.23
2022-09-20T02:59:07.211Z,10.24
2022-09-20T03:02:02.153Z,10.26
2022-09-20T03:05:06.336Z,10.25
2022-09-20T03:08:03.269Z,10.25
2022-09-20T03:10:53.024Z,10.24
2022-09-20T03:13:55.530Z,10.24
2022-09-20T03:16:52.578Z,10.24
2022-09-20T03:19:54.789Z,10.26
2022-09-20T03:22:50.900Z,10.29
2022-09-20T03:25:47.503Z,10.31
2022-09-20T03:28:51.515Z,10.31
2022-09-20T03:31:49.876Z,10.32
2022-09-20T03:34:59.371Z,10.34
2022-09-20T03:38:04.994Z,10.35
2022-09-20T03:41:11.001Z,10.36
2022-09-20T03:44:20.969Z,10.37
2022-09-20T03:47:18.980Z,10.38
2022-09-20T03:50:36.160Z,10.38
2022-09-20T03:54:20.472Z,10.36
2022-09-20T03:57:40.553Z,10.33
2022-09-20T04:00:53.148Z,10.31
2022-09-20T04:03:47.077Z,10.29
2022-09-20T04:07:04.419Z,10.30
2022-09-20T04:10:14.938Z,10.29
2022-09-20T04:13:18.963Z,10.29
2022-09-20T04:16:16.752Z,10.29
2022-09-20T04:19:00.915Z,10.29
2022-09-20T04:21:46.190Z,10.30
2022-09-20T04:24:39.244Z,10.28
2022-09-20T04:27:29.064Z,10.27
2022-09-20T04:30:16.042Z,10.26
2022-09-20T04:33:04.907Z,10.24
2022-09-20T04:36:10.900Z,10.24
2022-09-20T04:39:01.868Z,10.24
2022-09-20T04:42:37.161Z,10.22
2022-09-20T04:46:03.977Z,10.23
2022-09-20T04:49:37.614Z,10.24
2022-09-20T04:53:22.987Z,10.24
2022-09-20T04:56:10.861Z,10.25
2022-09-20T04:59:12.043Z,10.27
2022-09-20T05:02:53.623Z,10.31
2022-09-20T05:06:15.705Z,10.35
2022-09-20T05:09:56.298Z,10.39
2022-09-20T05:13:05.329Z,10.44
2022-09-20T05:16:00.853Z,10.48
2022-09-20T05:19:20.574Z,10.52
2022-09-20T05:22:47.018Z,10.57
2022-09-20T05:26:01.651Z,10.62
2022-09-20T05:28:54.984Z,10.68
2022-09-20T05:31:47.589Z,10.73
2022-09-20T05:34:36.078Z,10.77
2022-09-20T05:37:25.660Z,10.81
2022-09-20T05:40:21.892Z,10.85
2022-09-20T05:43:11.999Z,10.90
2022-09-20T05:46:17.352Z,10.96
2022-09-20T05:49:13.217Z,11.01
2022-09-20T05:52:32.767Z,11.04
2022-09-20T05:56:07.278Z,11.10
2022-09-20T05:59:09.747Z,11.16
2022-09-20T06:02:16.492Z,11.22
2022-09-20T06:05:04.309Z,11.27
2022-09-20T06:08:17.719Z,11.32
2022-09-20T06:11:15.880Z,11.37
2022-09-20T06:14:15.924Z,11.41
2022-09-20T06:17:06.288Z,11.45
2022-09-20T06:19:51.806Z,11.50
2022-09-20T06:22:35.506Z,11.57
2022-09-20T06:25:24.359Z,11.63
2022-09-20T06:28:13.460Z,11.68
2022-09-20T06:30:53.673Z,11.73
2022-09-20T06:33:31.668Z,11.77
2022-09-20T06:36:33.589Z,11.79
2022-09-20T06:39:42.067Z,11.80
2022-09-20T06:42:18.742Z,11.82
2022-09-20T06:44:55.660Z,11.82
2022-09-20T06:47:34.653Z,11.80
2022-09-20T06:50:19.531Z,11.80
2022-09-20T06:52:55.978Z,11.82
2022-09-20T06:55:37.524Z,11.81
2022-09-20T06:58:14.289Z,11.80
2022-09-20T07:00:50.966Z,11.80
2022-09-20T07:03:27.268Z,11.80
2022-09-20T07:06:04.653Z,11.81
2022-09-20T07:08:41.885Z,11.82
2022-09-20T07:11:23.176Z,11.82
2022-09-20T07:14:01.044Z,11.81
2022-09-20T07:16:37.610Z,11.79
2022-09-20T07:19:13.816Z,11.74
2022-09-20T07:21:50.302Z,11.70
2022-09-20T07:24:26.967Z,11.66
2022-09-20T07:27:06.778Z,11.63
2022-09-20T07:29:43.004Z,11.62
2022-09-20T07:32:19.169Z,11.64
2022-09-20T07:34:55.347Z,11.70
2022-09-20T07:37:36.361Z,11.85
2022-09-20T07:40:15.881Z,12.10
2022-09-20T07:42:56.138Z,12.42
2022-09-20T07:45:34.347Z,12.74
2022-09-20T07:48:10.743Z,13.07
2022-09-20T07:50:56.809Z,13.42
2022-09-20T07:53:33.756Z,13.86
2022-09-20T07:56:15.218Z,14.25
2022-09-20T07:58:52.613Z,14.52
2022-09-20T08:01:29.030Z,14.71
2022-09-20T08:04:08.199Z,14.88
2022-09-20T08:06:47.487Z,15.00
2022-09-20T08:09:23.905Z,15.09
2022-09-20T08:14:05.192Z,15.22
2022-09-20T08:14:56.835Z,15.23
2022-09-20T08:17:33.670Z,15.27
2022-09-20T08:20:12.010Z,15.34
2022-09-20T08:23:06.309Z,15.41
2022-09-20T08:25:44.483Z,15.55
2022-09-20T08:28:20.654Z,15.64
2022-09-20T08:31:01.582Z,15.76
2022-09-20T08:33:39.249Z,15.90
2022-09-20T08:36:21.408Z,16.08
2022-09-20T08:42:03.137Z,16.91
2022-09-20T08:44:57.883Z,16.94
2022-09-20T08:47:38.650Z,16.85
2022-09-20T08:50:18.160Z,16.72
2022-09-20T08:53:05.131Z,16.59
2022-09-20T08:55:43.480Z,16.41
2022-09-20T08:58:19.857Z,16.37
2022-09-20T09:00:58.783Z,16.59
2022-09-20T09:03:36.913Z,16.85
2022-09-20T09:06:19.848Z,17.10
2022-09-20T09:08:58.927Z,17.37
2022-09-20T09:11:45.883Z,17.73
2022-09-20T09:14:54.988Z,18.03
2022-09-20T09:17:33.513Z,18.30
2022-09-20T09:20:25.655Z,18.53
2022-09-20T09:23:21.339Z,18.84
2022-09-20T09:26:04.227Z,18.73
2022-09-20T09:28:40.458Z,18.39
2022-09-20T09:31:27.709Z,18.01
2022-09-20T09:34:03.941Z,17.60
2022-09-20T09:36:48.096Z,17.29
2022-09-20T09:39:33.921Z,17.07
2022-09-20T09:42:29.855Z,17.02
2022-09-20T09:45:36.472Z,17.10
2022-09-20T09:48:27.871Z,17.16
2022-09-20T09:51:20.908Z,17.10
2022-09-20T09:53:58.049Z,17.09
2022-09-20T09:57:05.981Z,17.20
2022-09-20T10:00:17.802Z,17.35
2022-09-20T10:03:34.228Z,17.42
2022-09-20T10:06:24.442Z,17.23
2022-09-20T10:09:25.338Z,16.85
2022-09-20T10:12:27.065Z,16.42
2022-09-20T10:15:26.827Z,16.13
2022-09-20T10:18:28.395Z,15.94
2022-09-20T10:21:31.833Z,15.89
2022-09-20T10:24:30.737Z,15.91
2022-09-20T10:27:41.828Z,15.97
2022-09-20T10:30:22.896Z,16.11
2022-09-20T10:33:25.481Z,16.29
2022-09-20T10:36:24.306Z,16.59
2022-09-20T10:39:12.544Z,16.81
2022-09-20T10:42:20.377Z,17.07
2022-09-20T10:45:42.033Z,17.43
2022-09-20T10:48:28.887Z,17.69
2022-09-20T10:51:17.730Z,17.75
2022-09-20T10:54:08.172Z,17.58
2022-09-20T10:56:51.978Z,17.26
2022-09-20T10:59:48.303Z,16.96
2022-09-20T11:03:05.981Z,16.72
2022-09-20T11:06:00.945Z,16.50
2022-09-20T11:08:41.951Z,16.49
2022-09-20T11:11:27.277Z,16.62
2022-09-20T11:14:13.953Z,16.86
2022-09-20T11:16:59.749Z,17.10
2022-09-20T11:19:48.933Z,17.21
2022-09-20T11:22:32.595Z,17.26
2022-09-20T11:25:23.077Z,17.23
2022-09-20T11:28:12.743Z,17.09
2022-09-20T11:31:00.026Z,16.98
2022-09-20T11:33:45.872Z,16.99
2022-09-20T11:36:31.657Z,17.02
2022-09-20T11:39:16.063Z,16.91
2022-09-20T11:41:56.725Z,16.71
2022-09-20T11:44:42.310Z,16.54
2022-09-20T11:47:50.064Z,16.33
2022-09-20T11:51:34.598Z,16.08
2022-09-20T11:54:36.247Z,15.78
2022-09-20T11:57:17.858Z,15.59
2022-09-20T12:00:01.655Z,15.50
2022-09-20T12:02:49.672Z,15.50
2022-09-20T12:05:38.214Z,15.59
2022-09-20T12:08:29.326Z,15.75
2022-09-20T12:11:11.425Z,15.90
2022-09-20T12:14:05.921Z,16.04
2022-09-20T12:16:50.511Z,16.17
2022-09-20T12:19:43.342Z,16.22
2022-09-20T12:22:33.209Z,16.24
2022-09-20T12:26:01.014Z,16.20
2022-09-20T12:28:43.031Z,16.10
2022-09-20T12:31:53.446Z,16.02
2022-09-20T12:34:40.330Z,15.94
2022-09-20T12:37:30.647Z,15.85
2022-09-20T12:40:16.684Z,15.84
2022-09-20T12:42:59.471Z,15.95
2022-09-20T12:45:36.649Z,16.08
2022-09-20T12:48:23.875Z,16.28
2022-09-20T12:51:50.274Z,16.46
2022-09-20T12:54:26.454Z,16.49
2022-09-20T12:57:32.359Z,16.43
2022-09-20T13:00:34.556Z,16.35
2022-09-20T13:03:32.023Z,16.12
2022-09-20T13:06:29.922Z,15.78
2022-09-20T13:09:14.029Z,15.38
2022-09-20T13:11:56.981Z,15.00
2022-09-20T13:14:35.962Z,14.58
2022-09-20T13:17:30.999Z,14.20
2022-09-20T13:20:16.427Z,13.84
2022-09-20T13:22:56.044Z,13.57
2022-09-20T13:25:42.729Z,13.34
2022-09-20T13:28:34.335Z,13.21
2022-09-20T13:31:34.599Z,13.19
2022-09-20T13:34:25.029Z,13.25
2022-09-20T13:37:02.734Z,13.40
2022-09-20T13:39:41.385Z,13.59
2022-09-20T13:42:21.884Z,13.75
2022-09-20T13:44:59.849Z,14.05
2022-09-20T13:47:43.159Z,14.57
2022-09-20T13:50:33.049Z,15.10
2022-09-20T13:53:40.046Z,15.43
2022-09-20T13:56:24.192Z,15.45
2022-09-20T13:59:07.676Z,15.42
2022-09-20T14:01:52.954Z,15.41
2022-09-20T14:04:32.552Z,15.39
2022-09-20T14:07:11.287Z,15.36
2022-09-20T14:09:48.860Z,15.33
2022-09-20T14:12:26.981Z,15.31
2022-09-20T14:15:09.926Z,15.29
2022-09-20T14:17:46.330Z,15.30
2022-09-20T14:20:24.267Z,15.33
2022-09-20T14:23:01.116Z,15.37
2022-09-20T14:25:37.506Z,15.39
2022-09-20T14:28:29.002Z,15.36
2022-09-20T14:31:17.781Z,15.30
2022-09-20T14:33:59.000Z,15.22
2022-09-20T14:36:35.778Z,15.13
2022-09-20T14:39:20.270Z,15.03
2022-09-20T14:41:56.833Z,14.92
2022-09-20T14:44:38.004Z,14.83
2022-09-20T14:47:29.377Z,14.74
2022-09-20T14:50:23.308Z,14.68
2022-09-20T14:53:31.933Z,14.68
2022-09-20T14:56:18.308Z,14.69
2022-09-20T14:59:30.483Z,14.69
2022-09-20T15:02:17.210Z,14.68
2022-09-20T15:05:01.882Z,14.65
2022-09-20T15:07:41.120Z,14.62
2022-09-20T15:10:20.622Z,14.58
2022-09-20T15:12:57.069Z,14.56
2022-09-20T15:15:33.635Z,14.55
2022-09-20T15:18:22.798Z,14.58
2022-09-20T15:20:59.647Z,14.58
2022-09-20T15:23:36.762Z,14.60
2022-09-20T15:26:15.952Z,14.62
2022-09-20T15:28:53.004Z,14.66
2022-09-20T15:31:29.471Z,14.68
2022-09-20T15:34:08.409Z,14.67
2022-09-20T15:36:46.250Z,14.66
2022-09-20T15:39:24.701Z,14.63
2022-09-20T15:42:02.611Z,14.61
2022-09-20T15:44:38.937Z,14.60
2022-09-20T15:47:16.126Z,14.58
2022-09-20T15:49:53.509Z,14.56
2022-09-20T15:52:34.445Z,14.52
2022-09-20T15:55:12.458Z,14.48
2022-09-20T15:57:49.878Z,14.43
2022-09-20T16:00:26.138Z,14.35
2022-09-20T16:03:02.311Z,14.28
2022-09-20T16:05:38.820Z,14.20
2022-09-20T16:08:15.260Z,14.11
2022-09-20T16:11:01.731Z,14.02
2022-09-20T16:13:42.158Z,13.92
2022-09-20T16:16:18.828Z,13.80
2022-09-20T16:19:13.241Z,13.66
2022-09-20T16:21:57.869Z,13.52
2022-09-20T16:24:37.876Z,13.40
2022-09-20T16:27:18.902Z,13.28
2022-09-20T16:29:55.758Z,13.14
2022-09-20T16:32:32.040Z,13.01
2022-09-20T16:35:09.938Z,12.89
2022-09-20T16:37:48.343Z,12.78
2022-09-20T16:40:25.076Z,12.67
2022-09-20T16:43:01.925Z,12.56
2022-09-20T16:45:38.225Z,12.47
2022-09-20T16:48:14.555Z,12.39
2022-09-20T16:50:58.690Z,12.31
2022-09-20T16:53:35.355Z,12.24
2022-09-20T16:56:21.646Z,12.16
2022-09-20T16:58:58.612Z,12.08
2022-09-20T17:01:36.917Z,12.01
2022-09-20T17:04:15.127Z,11.94
2022-09-20T17:06:52.709Z,11.87
2022-09-20T17:09:29.541Z,11.77
2022-09-20T17:12:09.314Z,11.66
2022-09-20T17:14:45.927Z,11.55
2022-09-20T17:17:22.963Z,11.46
2022-09-20T17:19:59.231Z,11.36
2022-09-20T17:22:35.924Z,11.26
2022-09-20T17:25:14.267Z,11.18
2022-09-20T17:27:50.731Z,11.14
2022-09-20T17:30:27.534Z,11.04
2022-09-20T17:33:07.724Z,10.96
2022-09-20T17:35:53.539Z,10.89
2022-09-20T17:38:31.102Z,10.83
2022-09-20T17:41:14.074Z,10.79
2022-09-20T17:43:56.141Z,10.78
2022-09-20T17:46:33.755Z,10.77
2022-09-20T17:49:13.704Z,10.77
2022-09-20T17:51:53.089Z,10.77
2022-09-20T17:54:30.083Z,10.78
2022-09-20T17:57:06.893Z,10.79
2022-09-20T17:59:45.099Z,10.81
2022-09-20T18:02:21.809Z,10.83
2022-09-20T18:04:58.723Z,10.84
2022-09-20T18:07:36.000Z,10.85
2022-09-20T18:10:15.758Z,10.86
2022-09-20T18:12:52.891Z,10.86
2022-09-20T18:15:30.063Z,10.86
2022-09-20T18:18:07.144Z,10.86
2022-09-20T18:20:44.802Z,10.85
2022-09-20T18:23:22.843Z,10.84
2022-09-20T18:26:25.003Z,10.81
2022-09-20T18:29:09.644Z,10.77
2022-09-20T18:31:52.217Z,10.71
2022-09-20T18:34:32.711Z,10.65
2022-09-20T18:37:13.949Z,10.58
2022-09-20T18:39:51.463Z,10.50
2022-09-20T18:42:31.087Z,10.43
2022-09-20T18:45:11.650Z,10.37
2022-09-20T18:47:49.570Z,10.32
2022-09-20T18:50:28.245Z,10.26
2022-09-20T18:53:07.115Z,10.20
2022-09-20T18:55:46.605Z,10.15
2022-09-20T18:58:27.181Z,10.11
2022-09-20T19:01:47.496Z,10.07
2022-09-20T19:05:28.315Z,10.02
2022-09-20T19:08:34.341Z,9.97
2022-09-20T19:11:28.185Z,9.94
2022-09-20T19:14:17.052Z,9.90
2022-09-20T19:17:01.779Z,9.86
2022-09-20T19:19:55.205Z,9.83
2022-09-20T19:22:58.307Z,9.80
2022-09-20T19:25:45.372Z,9.80
2022-09-20T19:28:23.711Z,9.78
2022-09-20T19:31:02.511Z,9.78
2022-09-20T19:33:41.292Z,9.74
2022-09-20T19:36:23.052Z,9.69
2022-09-20T19:39:17.103Z,9.63
2022-09-20T19:42:03.147Z,9.58
2022-09-20T19:44:56.967Z,9.53
2022-09-20T19:47:48.564Z,9.46
2022-09-20T19:50:41.161Z,9.41
2022-09-20T19:53:22.512Z,9.37
2022-09-20T19:56:07.221Z,9.33
2022-09-20T19:58:46.706Z,9.30
2022-09-20T20:01:27.247Z,9.26
2022-09-20T20:04:06.929Z,9.22
2022-09-20T20:06:58.499Z,9.17
2022-09-20T20:09:52.307Z,9.13
2022-09-20T20:12:42.540Z,9.08
2022-09-20T20:15:45.753Z,9.03
2022-09-20T20:18:37.406Z,8.95
2022-09-20T20:21:24.281Z,9.02
2022-09-20T20:24:26.897Z,10.21
2022-09-20T20:27:03.416Z,11.36
2022-09-20T20:29:39.963Z,11.53
2022-09-20T20:32:17.261Z,11.76
2022-09-20T20:34:53.834Z,12.05
2022-09-20T20:37:32.528Z,12.24
2022-09-20T20:40:15.028Z,12.17
2022-09-20T20:42:57.181Z,12.24
2022-09-20T20:45:31.757Z,12.80
2022-09-20T20:48:08.593Z,12.89
2022-09-20T20:50:44.799Z,12.68
2022-09-20T20:53:21.047Z,12.52
2022-09-20T20:56:12.252Z,12.73
2022-09-20T20:58:50.886Z,13.24
2022-09-20T21:01:31.513Z,12.94
2022-09-20T21:04:09.991Z,12.59
2022-09-20T21:06:46.715Z,12.43
2022-09-20T21:09:22.972Z,12.22
2022-09-20T21:11:59.175Z,12.03
2022-09-20T21:14:35.823Z,11.93
2022-09-20T21:17:12.167Z,11.75
2022-09-20T21:19:48.396Z,11.54
2022-09-20T21:22:25.165Z,11.40
2022-09-20T21:25:01.387Z,11.49
2022-09-20T21:27:37.659Z,11.61
2022-09-20T21:30:16.718Z,11.65
2022-09-20T21:32:56.983Z,11.78
2022-09-20T21:35:33.135Z,11.80
2022-09-20T21:38:09.275Z,11.79
2022-09-20T21:40:45.619Z,11.82
2022-09-20T21:43:22.105Z,11.86
2022-09-20T21:45:58.985Z,11.89
2022-09-20T21:48:35.642Z,11.89
2022-09-20T21:51:14.666Z,11.89
2022-09-20T21:53:54.125Z,11.91
2022-09-20T21:56:33.295Z,11.95
2022-09-20T21:59:10.104Z,11.98
2022-09-20T22:01:46.722Z,12.00
2022-09-20T22:04:23.353Z,12.02
2022-09-20T22:07:00.017Z,12.05
2022-09-20T22:09:36.588Z,12.07
2022-09-20T22:12:13.125Z,12.09
2022-09-20T22:14:49.344Z,12.12
2022-09-20T22:17:27.212Z,12.15
2022-09-20T22:20:04.303Z,12.17
2022-09-20T22:22:40.848Z,12.20
2022-09-20T22:25:18.100Z,12.22
2022-09-20T22:27:54.703Z,12.23
2022-09-20T22:30:31.147Z,12.24
2022-09-20T22:33:07.880Z,12.22
2022-09-20T22:35:48.253Z,12.20
2022-09-20T22:38:24.696Z,12.18
2022-09-20T22:41:02.713Z,12.18
2022-09-20T22:43:40.002Z,12.19
2022-09-20T22:46:19.781Z,12.17
2022-09-20T22:48:56.387Z,12.12
2022-09-20T22:51:35.847Z,12.06
2022-09-20T22:54:15.500Z,11.97
2022-09-20T22:56:51.988Z,11.88
2022-09-20T22:59:28.398Z,11.87
2022-09-20T23:02:04.900Z,11.87
2022-09-20T23:04:42.451Z,11.82
2022-09-20T23:07:19.698Z,11.57
2022-09-20T23:09:56.371Z,11.26
2022-09-20T23:12:32.615Z,11.10
2022-09-20T23:15:12.004Z,10.91
2022-09-20T23:17:48.413Z,10.69
2022-09-20T23:20:24.994Z,10.51
2022-09-20T23:23:01.155Z,10.35
2022-09-20T23:25:37.412Z,10.24
2022-09-20T23:28:13.879Z,10.13
2022-09-20T23:30:50.092Z,10.03
2022-09-20T23:33:26.407Z,9.97
2022-09-20T23:36:06.823Z,9.90
2022-09-20T23:38:43.444Z,9.81
2022-09-20T23:41:22.611Z,9.79
2022-09-20T23:43:59.439Z,9.74
2022-09-20T23:46:36.009Z,9.65
2022-09-20T23:49:12.177Z,9.59
2022-09-20T23:51:48.434Z,9.56
2022-09-20T23:54:24.608Z,9.48
2022-09-20T23:57:01.377Z,9.40
2022-09-20T23:59:38.240Z,9.32
